sensor_id;sensor_type;location;lat;lon;timestamp;P1;durP1;ratioP1;P2;durP2;ratioP2
36377;SDS011;22402;42.746;23.606;2022-08-01T00:02:10;100.90;;;40.37;;
36377;SDS011;22402;42.746;23.606;2022-08-01T00:04:35;170.73;;;104.80;;
36377;SDS011;22402;42.746;23.606;2022-08-01T00:07:01;113.30;;;68.60;;
36377;SDS011;22402;42.746;23.606;2022-08-01T00:09:26;114.63;;;41.77;;
36377;SDS011;22402;42.746;23.606;2022-08-01T00:11:52;88.37;;;46.73;;
36377;SDS011;22402;42.746;23.606;2022-08-01T00:14:17;161.20;;;70.77;;
36377;SDS011;22402;42.746;23.606;2022-08-01T00:16:43;148.73;;;116.23;;
36377;SDS011;22402;42.746;23.606;2022-08-01T00:19:08;144.80;;;87.47;;
36377;SDS011;22402;42.746;23.606;2022-08-01T00:21:34;164.13;;;131.20;;
36377;SDS011;22402;42.746;23.606;2022-08-01T00:23:59;184.90;;;119.00;;
36377;SDS011;22402;42.746;23.606;2022-08-01T00:26:24;139.57;;;68.23;;
36377;SDS011;22402;42.746;23.606;2022-08-01T00:28:50;111.90;;;74.43;;
36377;SDS011;22402;42.746;23.606;2022-08-01T00:31:15;282.97;;;182.10;;
36377;SDS011;22402;42.746;23.606;2022-08-01T00:33:40;187.03;;;166.33;;
36377;SDS011;22402;42.746;23.606;2022-08-01T00:36:06;174.67;;;142.00;;
36377;SDS011;22402;42.746;23.606;2022-08-01T00:38:31;140.10;;;100.73;;
36377;SDS011;22402;42.746;23.606;2022-08-01T00:40:57;171.30;;;89.27;;
36377;SDS011;22402;42.746;23.606;2022-08-01T00:43:22;156.93;;;91.37;;
36377;SDS011;22402;42.746;23.606;2022-08-01T00:45:47;285.43;;;257.13;;
36377;SDS011;22402;42.746;23.606;2022-08-01T00:48:13;206.50;;;167.63;;
36377;SDS011;22402;42.746;23.606;2022-08-01T00:50:38;266.97;;;239.77;;
36377;SDS011;22402;42.746;23.606;2022-08-01T00:53:04;258.40;;;176.33;;
36377;SDS011;22402;42.746;23.606;2022-08-01T00:55:30;194.20;;;169.67;;
36377;SDS011;22402;42.746;23.606;2022-08-01T00:57:56;275.03;;;185.37;;
36377;SDS011;22402;42.746;23.606;2022-08-01T01:00:22;258.20;;;231.60;;
36377;SDS011;22402;42.746;23.606;2022-08-01T01:02:47;241.27;;;218.07;;
36377;SDS011;22402;42.746;23.606;2022-08-01T01:05:13;175.60;;;111.80;;
36377;SDS011;22402;42.746;23.606;2022-08-01T01:07:50;176.87;;;149.70;;
36377;SDS011;22402;42.746;23.606;2022-08-01T01:13:35;365.47;;;265.40;;
36377;SDS011;22402;42.746;23.606;2022-08-01T01:16:10;159.83;;;98.67;;
36377;SDS011;22402;42.746;23.606;2022-08-01T01:18:41;328.57;;;295.53;;
36377;SDS011;22402;42.746;23.606;2022-08-01T01:26:38;203.70;;;148.70;;
36377;SDS011;22402;42.746;23.606;2022-08-01T01:31:57;168.63;;;150.37;;
36377;SDS011;22402;42.746;23.606;2022-08-01T01:34:27;177.47;;;117.10;;
36377;SDS011;22402;42.746;23.606;2022-08-01T01:36:55;230.20;;;197.47;;
36377;SDS011;22402;42.746;23.606;2022-08-01T01:39:23;254.37;;;227.23;;
36377;SDS011;22402;42.746;23.606;2022-08-01T01:41:50;155.70;;;124.30;;
36377;SDS011;22402;42.746;23.606;2022-08-01T01:44:18;181.47;;;72.00;;
36377;SDS011;22402;42.746;23.606;2022-08-01T01:46:43;97.90;;;36.27;;
36377;SDS011;22402;42.746;23.606;2022-08-01T01:49:11;127.93;;;82.33;;
36377;SDS011;22402;42.746;23.606;2022-08-01T01:51:38;171.00;;;105.27;;
36377;SDS011;22402;42.746;23.606;2022-08-01T01:54:07;147.87;;;75.40;;
36377;SDS011;22402;42.746;23.606;2022-08-01T01:56:34;170.53;;;31.97;;
36377;SDS011;22402;42.746;23.606;2022-08-01T01:59:01;107.57;;;61.53;;
36377;SDS011;22402;42.746;23.606;2022-08-01T02:01:29;145.97;;;48.73;;
36377;SDS011;22402;42.746;23.606;2022-08-01T02:03:57;92.27;;;32.47;;
36377;SDS011;22402;42.746;23.606;2022-08-01T02:06:24;102.27;;;27.80;;
36377;SDS011;22402;42.746;23.606;2022-08-01T02:08:52;70.33;;;18.57;;
36377;SDS011;22402;42.746;23.606;2022-08-01T02:11:19;113.03;;;36.53;;
36377;SDS011;22402;42.746;23.606;2022-08-01T02:13:53;141.07;;;110.67;;
36377;SDS011;22402;42.746;23.606;2022-08-01T02:16:24;168.87;;;94.43;;
36377;SDS011;22402;42.746;23.606;2022-08-01T02:18:52;149.20;;;65.37;;
36377;SDS011;22402;42.746;23.606;2022-08-01T02:21:20;114.67;;;34.97;;
36377;SDS011;22402;42.746;23.606;2022-08-01T02:24:21;178.33;;;130.10;;
36377;SDS011;22402;42.746;23.606;2022-08-01T02:26:53;88.43;;;35.27;;
36377;SDS011;22402;42.746;23.606;2022-08-01T02:29:24;759.27;;;689.13;;
36377;SDS011;22402;42.746;23.606;2022-08-01T02:31:57;695.03;;;632.43;;
36377;SDS011;22402;42.746;23.606;2022-08-01T02:34:25;752.83;;;683.00;;
36377;SDS011;22402;42.746;23.606;2022-08-01T02:36:54;69.27;;;11.67;;
36377;SDS011;22402;42.746;23.606;2022-08-01T02:39:21;379.97;;;340.77;;
36377;SDS011;22402;42.746;23.606;2022-08-01T02:41:48;171.73;;;135.33;;
36377;SDS011;22402;42.746;23.606;2022-08-01T02:44:23;247.27;;;192.60;;
36377;SDS011;22402;42.746;23.606;2022-08-01T02:46:57;196.47;;;175.13;;
36377;SDS011;22402;42.746;23.606;2022-08-01T02:49:25;179.70;;;135.43;;
36377;SDS011;22402;42.746;23.606;2022-08-01T02:51:54;310.90;;;278.97;;
36377;SDS011;22402;42.746;23.606;2022-08-01T02:54:21;151.77;;;22.50;;
36377;SDS011;22402;42.746;23.606;2022-08-01T02:56:48;583.53;;;524.93;;
36377;SDS011;22402;42.746;23.606;2022-08-01T02:59:17;447.80;;;397.73;;
36377;SDS011;22402;42.746;23.606;2022-08-01T03:01:46;215.97;;;163.07;;
36377;SDS011;22402;42.746;23.606;2022-08-01T03:04:13;142.07;;;44.73;;
36377;SDS011;22402;42.746;23.606;2022-08-01T03:06:41;239.27;;;85.40;;
36377;SDS011;22402;42.746;23.606;2022-08-01T03:09:07;112.97;;;49.00;;
36377;SDS011;22402;42.746;23.606;2022-08-01T03:11:34;183.03;;;51.53;;
36377;SDS011;22402;42.746;23.606;2022-08-01T03:14:04;138.23;;;49.60;;
36377;SDS011;22402;42.746;23.606;2022-08-01T03:16:33;157.70;;;94.43;;
36377;SDS011;22402;42.746;23.606;2022-08-01T03:19:02;112.67;;;31.67;;
36377;SDS011;22402;42.746;23.606;2022-08-01T03:21:29;121.10;;;31.23;;
36377;SDS011;22402;42.746;23.606;2022-08-01T03:23:57;129.57;;;24.93;;
36377;SDS011;22402;42.746;23.606;2022-08-01T03:26:28;93.27;;;19.93;;
36377;SDS011;22402;42.746;23.606;2022-08-01T03:28:57;156.40;;;24.47;;
36377;SDS011;22402;42.746;23.606;2022-08-01T03:31:26;114.93;;;20.47;;
36377;SDS011;22402;42.746;23.606;2022-08-01T03:33:53;181.17;;;40.60;;
36377;SDS011;22402;42.746;23.606;2022-08-01T03:36:19;109.73;;;21.73;;
36377;SDS011;22402;42.746;23.606;2022-08-01T03:38:48;153.63;;;27.33;;
36377;SDS011;22402;42.746;23.606;2022-08-01T03:41:16;91.70;;;17.13;;
36377;SDS011;22402;42.746;23.606;2022-08-01T03:43:46;151.47;;;19.93;;
36377;SDS011;22402;42.746;23.606;2022-08-01T03:46:22;147.40;;;29.07;;
36377;SDS011;22402;42.746;23.606;2022-08-01T03:48:54;89.57;;;22.37;;
36377;SDS011;22402;42.746;23.606;2022-08-01T03:51:23;128.63;;;48.10;;
36377;SDS011;22402;42.746;23.606;2022-08-01T03:53:49;171.93;;;25.30;;
36377;SDS011;22402;42.746;23.606;2022-08-01T03:56:16;79.33;;;11.90;;
36377;SDS011;22402;42.746;23.606;2022-08-01T03:58:43;228.57;;;30.20;;
36377;SDS011;22402;42.746;23.606;2022-08-01T04:01:10;92.97;;;12.90;;
36377;SDS011;22402;42.746;23.606;2022-08-01T04:03:36;163.40;;;22.23;;
36377;SDS011;22402;42.746;23.606;2022-08-01T04:06:06;125.63;;;51.37;;
36377;SDS011;22402;42.746;23.606;2022-08-01T04:08:38;121.17;;;48.90;;
36377;SDS011;22402;42.746;23.606;2022-08-01T05:54:04;289.53;;;124.80;;
36377;SDS011;22402;42.746;23.606;2022-08-01T05:56:30;215.57;;;144.67;;
36377;SDS011;22402;42.746;23.606;2022-08-01T05:58:57;226.70;;;196.93;;
36377;SDS011;22402;42.746;23.606;2022-08-01T06:01:23;317.00;;;221.90;;
36377;SDS011;22402;42.746;23.606;2022-08-01T06:03:49;325.47;;;290.87;;
36377;SDS011;22402;42.746;23.606;2022-08-01T06:06:14;329.70;;;282.37;;
36377;SDS011;22402;42.746;23.606;2022-08-01T06:08:40;209.97;;;146.27;;
36377;SDS011;22402;42.746;23.606;2022-08-01T06:11:05;243.53;;;198.23;;
36377;SDS011;22402;42.746;23.606;2022-08-01T06:13:31;285.40;;;246.47;;
36377;SDS011;22402;42.746;23.606;2022-08-01T06:15:56;274.97;;;193.10;;
36377;SDS011;22402;42.746;23.606;2022-08-01T06:18:22;253.67;;;225.90;;
36377;SDS011;22402;42.746;23.606;2022-08-01T06:20:47;392.63;;;323.87;;
36377;SDS011;22402;42.746;23.606;2022-08-01T06:23:13;274.77;;;244.93;;
36377;SDS011;22402;42.746;23.606;2022-08-01T06:25:38;240.63;;;139.53;;
36377;SDS011;22402;42.746;23.606;2022-08-01T06:28:03;124.13;;;61.73;;
36377;SDS011;22402;42.746;23.606;2022-08-01T06:30:29;423.53;;;377.80;;
36377;SDS011;22402;42.746;23.606;2022-08-01T06:32:54;412.80;;;364.30;;
36377;SDS011;22402;42.746;23.606;2022-08-01T06:35:20;602.90;;;543.57;;
36377;SDS011;22402;42.746;23.606;2022-08-01T06:37:45;402.67;;;349.43;;
36377;SDS011;22402;42.746;23.606;2022-08-01T06:40:11;359.13;;;322.40;;
36377;SDS011;22402;42.746;23.606;2022-08-01T06:42:36;583.40;;;524.43;;
36377;SDS011;22402;42.746;23.606;2022-08-01T06:47:31;707.67;;;639.50;;
36377;SDS011;22402;42.746;23.606;2022-08-01T06:49:57;359.77;;;320.07;;
36377;SDS011;22402;42.746;23.606;2022-08-01T06:52:22;576.37;;;518.13;;
36377;SDS011;22402;42.746;23.606;2022-08-01T06:54:48;262.33;;;234.63;;
36377;SDS011;22402;42.746;23.606;2022-08-01T06:57:13;391.07;;;351.77;;
36377;SDS011;22402;42.746;23.606;2022-08-01T06:59:38;255.17;;;174.43;;
36377;SDS011;22402;42.746;23.606;2022-08-01T07:02:04;188.50;;;145.77;;
36377;SDS011;22402;42.746;23.606;2022-08-01T07:04:31;226.30;;;62.53;;
36377;SDS011;22402;42.746;23.606;2022-08-01T07:06:56;162.40;;;145.27;;
36377;SDS011;22402;42.746;23.606;2022-08-01T07:09:22;466.40;;;259.50;;
36377;SDS011;22402;42.746;23.606;2022-08-01T07:11:47;238.47;;;213.70;;
36377;SDS011;22402;42.746;23.606;2022-08-01T07:14:13;468.20;;;408.33;;
36377;SDS011;22402;42.746;23.606;2022-08-01T07:16:38;356.63;;;316.67;;
36377;SDS011;22402;42.746;23.606;2022-08-01T07:19:04;580.47;;;522.47;;
36377;SDS011;22402;42.746;23.606;2022-08-01T07:21:29;627.73;;;555.73;;
36377;SDS011;22402;42.746;23.606;2022-08-01T07:23:55;413.37;;;315.20;;
36377;SDS011;22402;42.746;23.606;2022-08-01T07:26:20;882.83;;;798.77;;
36377;SDS011;22402;42.746;23.606;2022-08-01T07:28:45;556.07;;;500.33;;
36377;SDS011;22402;42.746;23.606;2022-08-01T07:31:11;829.37;;;749.07;;
36377;SDS011;22402;42.746;23.606;2022-08-01T07:33:36;866.40;;;784.50;;
36377;SDS011;22402;42.746;23.606;2022-08-01T07:36:02;596.07;;;536.03;;
36377;SDS011;22402;42.746;23.606;2022-08-01T07:38:27;642.80;;;525.50;;
36377;SDS011;22402;42.746;23.606;2022-08-01T07:40:52;701.83;;;629.67;;
36377;SDS011;22402;42.746;23.606;2022-08-01T07:43:18;652.53;;;587.90;;
36377;SDS011;22402;42.746;23.606;2022-08-01T07:45:43;370.47;;;333.20;;
36377;SDS011;22402;42.746;23.606;2022-08-01T07:48:09;570.47;;;514.27;;
36377;SDS011;22402;42.746;23.606;2022-08-01T07:50:34;403.40;;;332.17;;
36377;SDS011;22402;42.746;23.606;2022-08-01T07:53:00;587.63;;;528.10;;
36377;SDS011;22402;42.746;23.606;2022-08-01T07:55:25;733.50;;;663.20;;
36377;SDS011;22402;42.746;23.606;2022-08-01T07:57:51;763.80;;;690.50;;
36377;SDS011;22402;42.746;23.606;2022-08-01T08:00:16;363.83;;;327.43;;
36377;SDS011;22402;42.746;23.606;2022-08-01T08:02:42;416.00;;;363.03;;
36377;SDS011;22402;42.746;23.606;2022-08-01T08:05:07;409.50;;;367.90;;
36377;SDS011;22402;42.746;23.606;2022-08-01T08:07:33;386.93;;;345.70;;
36377;SDS011;22402;42.746;23.606;2022-08-01T08:09:58;382.20;;;342.10;;
36377;SDS011;22402;42.746;23.606;2022-08-01T08:12:24;317.83;;;284.13;;
36377;SDS011;22402;42.746;23.606;2022-08-01T08:14:50;260.67;;;136.33;;
36377;SDS011;22402;42.746;23.606;2022-08-01T08:17:15;310.93;;;175.37;;
36377;SDS011;22402;42.746;23.606;2022-08-01T08:19:40;373.60;;;191.80;;
36377;SDS011;22402;42.746;23.606;2022-08-01T08:22:07;284.07;;;129.13;;
36377;SDS011;22402;42.746;23.606;2022-08-01T08:24:33;264.37;;;116.47;;
36377;SDS011;22402;42.746;23.606;2022-08-01T08:26:59;239.23;;;122.53;;
36377;SDS011;22402;42.746;23.606;2022-08-01T08:29:25;246.53;;;161.17;;
36377;SDS011;22402;42.746;23.606;2022-08-01T08:31:52;250.07;;;158.27;;
36377;SDS011;22402;42.746;23.606;2022-08-01T08:34:19;219.80;;;100.53;;
36377;SDS011;22402;42.746;23.606;2022-08-01T08:36:44;193.20;;;122.33;;
36377;SDS011;22402;42.746;23.606;2022-08-01T08:39:10;134.17;;;63.87;;
36377;SDS011;22402;42.746;23.606;2022-08-01T08:41:35;173.77;;;67.13;;
36377;SDS011;22402;42.746;23.606;2022-08-01T08:44:02;239.67;;;90.10;;
36377;SDS011;22402;42.746;23.606;2022-08-01T08:46:28;132.60;;;79.20;;
36377;SDS011;22402;42.746;23.606;2022-08-01T08:48:56;172.83;;;54.13;;
36377;SDS011;22402;42.746;23.606;2022-08-01T08:51:22;133.67;;;80.27;;
36377;SDS011;22402;42.746;23.606;2022-08-01T08:53:50;210.73;;;99.90;;
36377;SDS011;22402;42.746;23.606;2022-08-01T08:56:19;149.93;;;80.27;;
36377;SDS011;22402;42.746;23.606;2022-08-01T08:58:45;186.13;;;85.90;;
36377;SDS011;22402;42.746;23.606;2022-08-01T09:01:11;116.43;;;59.20;;
36377;SDS011;22402;42.746;23.606;2022-08-01T09:03:37;165.33;;;65.10;;
36377;SDS011;22402;42.746;23.606;2022-08-01T09:06:02;159.80;;;58.73;;
36377;SDS011;22402;42.746;23.606;2022-08-01T09:08:28;99.93;;;43.07;;
36377;SDS011;22402;42.746;23.606;2022-08-01T09:10:54;82.47;;;19.10;;
36377;SDS011;22402;42.746;23.606;2022-08-01T09:13:19;116.80;;;22.63;;
36377;SDS011;22402;42.746;23.606;2022-08-01T09:18:26;102.57;;;45.97;;
36377;SDS011;22402;42.746;23.606;2022-08-01T09:21:18;139.03;;;59.97;;
36377;SDS011;22402;42.746;23.606;2022-08-01T09:23:47;191.20;;;67.83;;
36377;SDS011;22402;42.746;23.606;2022-08-01T09:26:16;86.93;;;24.30;;
36377;SDS011;22402;42.746;23.606;2022-08-01T09:28:43;147.43;;;71.87;;
36377;SDS011;22402;42.746;23.606;2022-08-01T09:31:11;121.27;;;38.33;;
36377;SDS011;22402;42.746;23.606;2022-08-01T09:34:00;96.80;;;20.57;;
36377;SDS011;22402;42.746;23.606;2022-08-01T09:36:26;119.20;;;25.03;;
36377;SDS011;22402;42.746;23.606;2022-08-01T09:39:12;119.77;;;23.33;;
36377;SDS011;22402;42.746;23.606;2022-08-01T09:41:38;94.07;;;23.33;;
36377;SDS011;22402;42.746;23.606;2022-08-01T09:44:03;58.10;;;14.00;;
36377;SDS011;22402;42.746;23.606;2022-08-01T09:46:29;186.07;;;34.83;;
36377;SDS011;22402;42.746;23.606;2022-08-01T09:49:02;107.30;;;19.40;;
36377;SDS011;22402;42.746;23.606;2022-08-01T09:51:36;136.70;;;24.17;;
36377;SDS011;22402;42.746;23.606;2022-08-01T09:54:04;173.67;;;28.63;;
36377;SDS011;22402;42.746;23.606;2022-08-01T09:56:37;78.63;;;17.33;;
36377;SDS011;22402;42.746;23.606;2022-08-01T09:59:04;99.33;;;32.80;;
36377;SDS011;22402;42.746;23.606;2022-08-01T10:01:44;119.63;;;29.50;;
36377;SDS011;22402;42.746;23.606;2022-08-01T10:04:11;159.83;;;54.03;;
36377;SDS011;22402;42.746;23.606;2022-08-01T10:06:42;165.43;;;74.50;;
36377;SDS011;22402;42.746;23.606;2022-08-01T10:09:13;89.27;;;59.97;;
36377;SDS011;22402;42.746;23.606;2022-08-01T10:11:40;120.50;;;71.93;;
36377;SDS011;22402;42.746;23.606;2022-08-01T10:14:07;112.17;;;65.57;;
36377;SDS011;22402;42.746;23.606;2022-08-01T10:16:33;111.10;;;44.43;;
36377;SDS011;22402;42.746;23.606;2022-08-01T10:19:00;79.73;;;37.83;;
36377;SDS011;22402;42.746;23.606;2022-08-01T10:21:29;143.53;;;50.63;;
36377;SDS011;22402;42.746;23.606;2022-08-01T10:23:57;64.67;;;23.17;;
36377;SDS011;22402;42.746;23.606;2022-08-01T10:26:25;104.67;;;46.73;;
36377;SDS011;22402;42.746;23.606;2022-08-01T10:28:51;71.17;;;10.70;;
36377;SDS011;22402;42.746;23.606;2022-08-01T10:31:18;81.90;;;16.23;;
36377;SDS011;22402;42.746;23.606;2022-08-01T10:33:44;122.83;;;23.17;;
36377;SDS011;22402;42.746;23.606;2022-08-01T10:36:09;114.53;;;17.30;;
36377;SDS011;22402;42.746;23.606;2022-08-01T10:38:35;79.63;;;15.20;;
36377;SDS011;22402;42.746;23.606;2022-08-01T10:41:02;69.27;;;12.37;;
36377;SDS011;22402;42.746;23.606;2022-08-01T10:43:29;74.60;;;13.70;;
36377;SDS011;22402;42.746;23.606;2022-08-01T10:45:54;123.23;;;21.60;;
36377;SDS011;22402;42.746;23.606;2022-08-01T10:48:22;103.03;;;19.80;;
36377;SDS011;22402;42.746;23.606;2022-08-01T10:50:54;101.47;;;22.83;;
36377;SDS011;22402;42.746;23.606;2022-08-01T10:53:25;95.57;;;21.50;;
36377;SDS011;22402;42.746;23.606;2022-08-01T10:55:52;76.63;;;15.23;;
36377;SDS011;22402;42.746;23.606;2022-08-01T11:06:40;73.00;;;12.00;;
36377;SDS011;22402;42.746;23.606;2022-08-01T11:09:29;82.67;;;13.80;;
36377;SDS011;22402;42.746;23.606;2022-08-01T11:12:10;84.83;;;18.13;;
36377;SDS011;22402;42.746;23.606;2022-08-01T11:15:18;126.83;;;25.07;;
36377;SDS011;22402;42.746;23.606;2022-08-01T11:25:23;106.03;;;17.23;;
36377;SDS011;22402;42.746;23.606;2022-08-01T11:27:49;115.73;;;19.50;;
36377;SDS011;22402;42.746;23.606;2022-08-01T11:30:40;97.03;;;18.30;;
36377;SDS011;22402;42.746;23.606;2022-08-01T11:33:06;103.63;;;25.53;;
36377;SDS011;22402;42.746;23.606;2022-08-01T11:35:31;115.33;;;20.37;;
36377;SDS011;22402;42.746;23.606;2022-08-01T11:37:57;125.00;;;18.97;;
36377;SDS011;22402;42.746;23.606;2022-08-01T11:41:10;80.20;;;14.43;;
36377;SDS011;22402;42.746;23.606;2022-08-01T11:43:58;64.90;;;18.67;;
36377;SDS011;22402;42.746;23.606;2022-08-01T11:51:56;79.47;;;21.00;;
36377;SDS011;22402;42.746;23.606;2022-08-01T11:54:48;76.00;;;30.83;;
36377;SDS011;22402;42.746;23.606;2022-08-01T11:57:22;181.10;;;28.93;;
36377;SDS011;22402;42.746;23.606;2022-08-01T11:59:53;122.13;;;29.40;;
36377;SDS011;22402;42.746;23.606;2022-08-01T12:02:22;77.90;;;12.40;;
36377;SDS011;22402;42.746;23.606;2022-08-01T12:07:24;136.80;;;33.83;;
36377;SDS011;22402;42.746;23.606;2022-08-01T12:09:58;87.63;;;26.47;;
36377;SDS011;22402;42.746;23.606;2022-08-01T12:12:41;211.57;;;34.13;;
36377;SDS011;22402;42.746;23.606;2022-08-01T12:15:14;44.80;;;16.67;;
36377;SDS011;22402;42.746;23.606;2022-08-01T12:17:41;82.23;;;17.47;;
36377;SDS011;22402;42.746;23.606;2022-08-01T12:20:09;68.77;;;16.73;;
36377;SDS011;22402;42.746;23.606;2022-08-01T12:22:36;95.70;;;22.27;;
36377;SDS011;22402;42.746;23.606;2022-08-01T12:25:20;53.00;;;9.20;;
36377;SDS011;22402;42.746;23.606;2022-08-01T12:27:46;96.53;;;19.50;;
36377;SDS011;22402;42.746;23.606;2022-08-01T12:30:13;74.90;;;27.03;;
36377;SDS011;22402;42.746;23.606;2022-08-01T12:32:40;139.00;;;51.77;;
36377;SDS011;22402;42.746;23.606;2022-08-01T12:40:31;81.00;;;25.77;;
36377;SDS011;22402;42.746;23.606;2022-08-01T12:42:57;147.13;;;38.47;;
36377;SDS011;22402;42.746;23.606;2022-08-01T12:45:28;132.30;;;67.53;;
36377;SDS011;22402;42.746;23.606;2022-08-01T12:47:58;151.80;;;76.50;;
36377;SDS011;22402;42.746;23.606;2022-08-01T12:50:24;181.77;;;64.60;;
36377;SDS011;22402;42.746;23.606;2022-08-01T12:52:52;154.77;;;80.30;;
36377;SDS011;22402;42.746;23.606;2022-08-01T12:55:18;158.33;;;89.80;;
36377;SDS011;22402;42.746;23.606;2022-08-01T12:57:46;112.87;;;33.63;;
36377;SDS011;22402;42.746;23.606;2022-08-01T13:00:14;218.30;;;77.03;;
36377;SDS011;22402;42.746;23.606;2022-08-01T13:02:48;146.83;;;70.67;;
36377;SDS011;22402;42.746;23.606;2022-08-01T13:05:15;135.60;;;69.63;;
36377;SDS011;22402;42.746;23.606;2022-08-01T13:10:11;98.47;;;15.00;;
36377;SDS011;22402;42.746;23.606;2022-08-01T13:12:38;221.90;;;76.10;;
36377;SDS011;22402;42.746;23.606;2022-08-01T13:15:16;134.13;;;56.47;;
36377;SDS011;22402;42.746;23.606;2022-08-01T13:17:42;115.50;;;46.27;;
36377;SDS011;22402;42.746;23.606;2022-08-01T13:20:09;105.57;;;25.43;;
36377;SDS011;22402;42.746;23.606;2022-08-01T13:22:45;104.87;;;29.90;;
36377;SDS011;22402;42.746;23.606;2022-08-01T13:25:14;137.30;;;49.63;;
36377;SDS011;22402;42.746;23.606;2022-08-01T13:27:41;161.13;;;52.20;;
36377;SDS011;22402;42.746;23.606;2022-08-01T13:30:12;132.80;;;42.33;;
36377;SDS011;22402;42.746;23.606;2022-08-01T13:32:39;203.30;;;80.67;;
36377;SDS011;22402;42.746;23.606;2022-08-01T13:35:07;105.27;;;41.33;;
36377;SDS011;22402;42.746;23.606;2022-08-01T13:37:33;92.50;;;37.93;;
36377;SDS011;22402;42.746;23.606;2022-08-01T13:39:59;159.27;;;76.73;;
36377;SDS011;22402;42.746;23.606;2022-08-01T13:42:24;121.63;;;71.53;;
36377;SDS011;22402;42.746;23.606;2022-08-01T13:44:50;185.40;;;102.80;;
36377;SDS011;22402;42.746;23.606;2022-08-01T14:06:16;1338.53;;;999.90;;
36377;SDS011;22402;42.746;23.606;2022-08-01T14:08:44;1347.70;;;999.90;;
36377;SDS011;22402;42.746;23.606;2022-08-01T14:11:10;1323.83;;;999.90;;
36377;SDS011;22402;42.746;23.606;2022-08-01T14:13:35;1338.97;;;999.90;;
36377;SDS011;22402;42.746;23.606;2022-08-01T14:16:01;1314.50;;;999.90;;
36377;SDS011;22402;42.746;23.606;2022-08-01T14:18:28;1353.57;;;999.90;;
36377;SDS011;22402;42.746;23.606;2022-08-01T14:20:53;1096.10;;;840.67;;
36377;SDS011;22402;42.746;23.606;2022-08-01T14:23:19;1350.50;;;999.90;;
36377;SDS011;22402;42.746;23.606;2022-08-01T14:25:44;1383.53;;;999.90;;
36377;SDS011;22402;42.746;23.606;2022-08-01T14:28:10;1310.83;;;999.90;;
36377;SDS011;22402;42.746;23.606;2022-08-01T14:30:36;1361.33;;;999.90;;
36377;SDS011;22402;42.746;23.606;2022-08-01T14:33:01;1333.03;;;999.90;;
36377;SDS011;22402;42.746;23.606;2022-08-01T14:35:27;1369.70;;;999.90;;
36377;SDS011;22402;42.746;23.606;2022-08-01T14:37:53;1348.97;;;999.90;;
36377;SDS011;22402;42.746;23.606;2022-08-01T14:40:18;1309.63;;;999.90;;
36377;SDS011;22402;42.746;23.606;2022-08-01T14:42:44;1309.53;;;999.90;;
36377;SDS011;22402;42.746;23.606;2022-08-01T14:45:10;1329.43;;;999.90;;
36377;SDS011;22402;42.746;23.606;2022-08-01T14:50:06;1332.10;;;999.90;;
36377;SDS011;22402;42.746;23.606;2022-08-01T14:52:34;1316.13;;;999.90;;
36377;SDS011;22402;42.746;23.606;2022-08-01T14:55:00;1327.67;;;999.90;;
36377;SDS011;22402;42.746;23.606;2022-08-01T14:57:26;1289.37;;;999.90;;
36377;SDS011;22402;42.746;23.606;2022-08-01T14:59:53;1353.90;;;999.90;;
36377;SDS011;22402;42.746;23.606;2022-08-01T15:02:19;1308.50;;;999.90;;
36377;SDS011;22402;42.746;23.606;2022-08-01T15:04:44;1366.80;;;999.90;;
36377;SDS011;22402;42.746;23.606;2022-08-01T15:07:11;1310.60;;;999.90;;
36377;SDS011;22402;42.746;23.606;2022-08-01T15:09:37;1335.07;;;999.90;;
36377;SDS011;22402;42.746;23.606;2022-08-01T15:12:05;1326.47;;;999.90;;
36377;SDS011;22402;42.746;23.606;2022-08-01T15:14:30;1323.90;;;999.90;;
36377;SDS011;22402;42.746;23.606;2022-08-01T15:16:56;1337.90;;;999.90;;
36377;SDS011;22402;42.746;23.606;2022-08-01T15:19:21;1342.80;;;999.90;;
36377;SDS011;22402;42.746;23.606;2022-08-01T15:21:46;1312.47;;;999.90;;
36377;SDS011;22402;42.746;23.606;2022-08-01T15:24:12;1325.17;;;999.90;;
36377;SDS011;22402;42.746;23.606;2022-08-01T15:26:37;1335.57;;;999.90;;
36377;SDS011;22402;42.746;23.606;2022-08-01T15:29:03;1369.23;;;999.90;;
36377;SDS011;22402;42.746;23.606;2022-08-01T15:31:32;1337.30;;;999.90;;
36377;SDS011;22402;42.746;23.606;2022-08-01T15:33:57;1347.67;;;999.90;;
36377;SDS011;22402;42.746;23.606;2022-08-01T15:36:23;1204.53;;;992.03;;
36377;SDS011;22402;42.746;23.606;2022-08-01T15:38:48;1330.70;;;999.90;;
36377;SDS011;22402;42.746;23.606;2022-08-01T15:41:14;1306.27;;;999.90;;
36377;SDS011;22402;42.746;23.606;2022-08-01T15:43:39;1317.47;;;999.90;;
36377;SDS011;22402;42.746;23.606;2022-08-01T15:46:04;1328.83;;;999.90;;
36377;SDS011;22402;42.746;23.606;2022-08-01T15:48:29;1336.97;;;999.90;;
36377;SDS011;22402;42.746;23.606;2022-08-01T15:50:55;1358.60;;;999.90;;
36377;SDS011;22402;42.746;23.606;2022-08-01T15:53:20;1328.10;;;999.90;;
36377;SDS011;22402;42.746;23.606;2022-08-01T15:55:46;1318.83;;;999.90;;
36377;SDS011;22402;42.746;23.606;2022-08-01T15:58:11;1345.70;;;999.90;;
36377;SDS011;22402;42.746;23.606;2022-08-01T16:00:36;1346.23;;;999.90;;
36377;SDS011;22402;42.746;23.606;2022-08-01T16:03:02;1343.13;;;999.90;;
36377;SDS011;22402;42.746;23.606;2022-08-01T16:05:27;1355.70;;;999.90;;
36377;SDS011;22402;42.746;23.606;2022-08-01T16:07:53;1318.37;;;999.90;;
36377;SDS011;22402;42.746;23.606;2022-08-01T16:10:18;1364.17;;;999.90;;
36377;SDS011;22402;42.746;23.606;2022-08-01T16:12:43;1380.23;;;999.90;;
36377;SDS011;22402;42.746;23.606;2022-08-01T16:15:09;1369.77;;;999.90;;
36377;SDS011;22402;42.746;23.606;2022-08-01T16:17:34;1316.77;;;999.90;;
36377;SDS011;22402;42.746;23.606;2022-08-01T16:20:00;1300.73;;;999.90;;
36377;SDS011;22402;42.746;23.606;2022-08-01T16:22:25;1341.20;;;999.90;;
36377;SDS011;22402;42.746;23.606;2022-08-01T16:24:51;1339.73;;;999.90;;
36377;SDS011;22402;42.746;23.606;2022-08-01T16:27:16;1305.93;;;999.90;;
36377;SDS011;22402;42.746;23.606;2022-08-01T16:29:42;1342.03;;;999.90;;
36377;SDS011;22402;42.746;23.606;2022-08-01T16:32:07;1338.97;;;999.90;;
36377;SDS011;22402;42.746;23.606;2022-08-01T16:34:33;1356.57;;;999.90;;
36377;SDS011;22402;42.746;23.606;2022-08-01T16:36:58;1334.07;;;999.90;;
36377;SDS011;22402;42.746;23.606;2022-08-01T16:39:24;1346.37;;;999.90;;
36377;SDS011;22402;42.746;23.606;2022-08-01T16:41:50;1341.80;;;999.90;;
36377;SDS011;22402;42.746;23.606;2022-08-01T16:44:15;1344.20;;;999.90;;
36377;SDS011;22402;42.746;23.606;2022-08-01T16:46:41;1334.17;;;999.90;;